Las Peladas, Argentina
Current Conditions -  °F | °C
As of 7:00 AM on Thursday 18 Dec 2014 (Local Time) from SCAT Reporting Station
NA  
Wind Chill: 57°   Ceiling: NA
Heat Index: 57°   Visibility: 6mi
Dew Point: 52°   Wind: 6mph
Humidity: 82%   Direction: 320°NW
Pressure: 30.06"   Gusts: NA
Location:  27.04°S, 68.09°W
Report Text: SCAT 181000Z AUTO 32005KT 9999 // ///011 14/11 Q1018
Loading
Personal Weather Stations






























Interactive Weather Map New forecast layout! Learn more

10-Day Weather Forecast

Advertisements
Track Severe Weather on mobile